Terminal Aerodrome Forecast
Issued by NWS

Home | Current Version | Previous Version | Text Only | Print | Product List | Glossary On
Versions: 1 2 3 4 5 6 7 8 9 10 11 12 13 14 15 16
000
FTUS44 KLUB 281100
TAFCDS
TAF
KCDS 281128Z 2812/2912 17008KT P6SM SCT090 BKN200
     FM281800 19010KT P6SM SCT070 BKN200 PROB30 2821/2903 TSRA
      BKN070CB=

USA.gov is the U.S. government's official web portal to all federal, state and local government web resources and services.